Time;durP1;ratioP1;P1;durP2;ratioP2;P2;SDS_P1;SDS_P2;PMS_P1;PMS_P2;Temp;Humidity;BMP_temperature;BMP_pressure;BME280_temperature;BME280_humidity;BME280_pressure;Samples;Min_cycle;Max_cycle;Signal;HPM_P1;HPM_P2
2022/01/09 00:00:37;;;;;;;1.10;0.70;;;;;;;6.45;77.40;97577.22;5011816;28;20206;-78
2022/01/09 00:03:02;;;;;;;0.70;0.60;;;;;;;6.52;77.35;97566.19;4994046;28;20218;-79
2022/01/09 00:05:28;;;;;;;0.70;0.70;;;;;;;6.60;76.51;97562.97;5012389;28;20595;-78
2022/01/09 00:07:53;;;;;;;0.70;0.70;;;;;;;6.66;76.79;97562.47;5011915;28;20245;-79
2022/01/09 00:10:19;;;;;;;1.00;0.63;;;;;;;6.72;76.58;97563.75;5007652;28;20206;-78
2022/01/09 00:12:45;;;;;;;0.82;0.70;;;;;;;6.73;76.51;97561.03;5012927;28;20484;-78
2022/01/09 00:15:11;;;;;;;0.95;0.80;;;;;;;6.75;76.31;97561.75;5011387;28;20538;-78
2022/01/09 00:17:37;;;;;;;1.00;0.80;;;;;;;6.77;76.57;97564.22;5008770;28;20210;-78
2022/01/09 00:20:04;;;;;;;0.93;0.80;;;;;;;6.80;76.39;97567.41;5009989;28;20342;-79
2022/01/09 00:22:41;;;;;;;0.80;0.60;;;;;;;6.82;75.83;97568.13;5013947;28;20242;-78
2022/01/09 00:25:08;;;;;;;0.70;0.70;;;;;;;6.84;75.53;97563.63;5012437;28;20251;-78
2022/01/09 00:27:36;;;;;;;1.03;0.80;;;;;;;6.88;75.67;97566.78;5010467;28;20217;-77
2022/01/09 00:30:05;;;;;;;0.75;0.73;;;;;;;6.90;75.48;97564.06;5010720;28;20376;-78
2022/01/09 00:32:31;;;;;;;1.90;0.98;;;;;;;6.91;75.32;97568.31;5009512;28;20230;-78
2022/01/09 00:34:56;;;;;;;0.67;0.67;;;;;;;6.93;75.64;97566.44;5010483;28;20389;-77
2022/01/09 00:37:21;;;;;;;0.60;0.60;;;;;;;6.92;75.30;97570.00;5008998;28;20416;-78
2022/01/09 00:39:47;;;;;;;1.07;0.70;;;;;;;6.97;74.81;97567.84;5008690;28;20242;-78
2022/01/09 00:42:12;;;;;;;0.70;0.70;;;;;;;7.00;74.76;97564.97;5009154;28;20602;-78
2022/01/09 00:44:38;;;;;;;0.70;0.70;;;;;;;7.03;74.23;97575.16;5009449;28;20217;-77
2022/01/09 00:47:04;;;;;;;1.43;1.33;;;;;;;7.06;74.18;97580.97;5006360;28;20548;-78
2022/01/09 00:49:29;;;;;;;0.70;0.70;;;;;;;7.08;74.37;97563.41;5011855;28;20293;-77
2022/01/09 00:51:55;;;;;;;0.77;0.63;;;;;;;7.08;74.58;97570.41;5009193;28;20547;-77
2022/01/09 00:54:20;;;;;;;1.53;0.70;;;;;;;7.09;74.61;97565.03;5010380;28;20300;-78
2022/01/09 00:56:46;;;;;;;0.80;0.60;;;;;;;7.08;74.55;97567.78;5015271;23;20281;-78
2022/01/09 00:59:11;;;;;;;0.93;0.60;;;;;;;7.06;75.02;97574.91;4998887;28;20597;-78
2022/01/09 01:01:37;;;;;;;0.80;0.60;;;;;;;7.07;75.50;97573.94;5012046;28;20497;-78
2022/01/09 01:04:02;;;;;;;1.17;0.60;;;;;;;7.05;75.24;97575.88;5011019;28;20479;-78
2022/01/09 01:06:27;;;;;;;0.93;0.77;;;;;;;7.01;75.46;97587.50;5010423;28;20265;-78
2022/01/09 01:08:53;;;;;;;0.60;0.50;;;;;;;7.00;75.27;97585.88;4991657;28;20371;-78
2022/01/09 01:11:20;;;;;;;0.60;0.60;;;;;;;6.96;75.59;97577.44;5011084;28;20285;-78
2022/01/09 01:13:46;;;;;;;0.80;0.60;;;;;;;6.96;75.24;97589.66;5011768;28;20214;-78
2022/01/09 01:16:11;;;;;;;0.70;0.70;;;;;;;6.96;75.14;97580.03;5007643;28;20429;-78
2022/01/09 01:18:37;;;;;;;0.90;0.60;;;;;;;6.96;74.88;97574.81;5010687;28;20278;-78
2022/01/09 01:21:03;;;;;;;7.67;0.90;;;;;;;6.98;74.40;97578.16;5008245;28;20388;-78
2022/01/09 01:23:28;;;;;;;1.23;0.70;;;;;;;7.00;74.16;97575.44;5008456;28;20893;-78
2022/01/09 01:25:54;;;;;;;2.00;0.60;;;;;;;6.99;74.49;97574.56;5011440;28;20230;-78
2022/01/09 01:28:20;;;;;;;2.15;0.73;;;;;;;6.98;74.19;97583.38;5011978;28;20269;-79
2022/01/09 01:30:45;;;;;;;1.67;0.70;;;;;;;6.94;74.46;97587.19;5012012;28;20267;-78
2022/01/09 01:33:10;;;;;;;1.70;1.43;;;;;;;6.94;74.80;97578.50;5008753;28;20779;-78
2022/01/09 01:35:36;;;;;;;8.83;0.80;;;;;;;6.90;74.71;97571.91;5008718;28;20233;-78
2022/01/09 01:38:02;;;;;;;1.00;0.70;;;;;;;6.85;75.26;97587.91;5011878;28;20499;-78
2022/01/09 01:40:27;;;;;;;1.47;0.70;;;;;;;6.83;75.27;97601.09;5011903;28;20210;-78
2022/01/09 01:42:52;;;;;;;0.70;0.60;;;;;;;6.82;75.47;97582.94;5009167;28;20476;-78
2022/01/09 01:45:18;;;;;;;1.27;0.70;;;;;;;6.78;75.76;97571.94;5012292;28;20607;-78
2022/01/09 01:47:44;;;;;;;1.00;0.60;;;;;;;6.76;75.36;97588.69;5008886;28;20266;-78
2022/01/09 01:50:13;;;;;;;0.80;0.67;;;;;;;6.74;75.81;97603.63;5010023;28;20217;-78
2022/01/09 01:52:48;;;;;;;0.73;0.60;;;;;;;6.72;76.11;97603.72;5020101;28;20450;-78
2022/01/09 01:55:16;;;;;;;2.80;0.70;;;;;;;6.70;75.90;97600.44;5001180;28;20229;-78
2022/01/09 01:57:43;;;;;;;1.50;0.80;;;;;;;6.64;75.71;97585.25;5015811;28;20282;-78
2022/01/09 02:00:15;;;;;;;0.70;0.50;;;;;;;6.59;76.07;97592.63;4994187;28;21088;-77
2022/01/09 02:02:40;;;;;;;0.80;0.70;;;;;;;6.67;76.39;97599.81;5010409;28;20479;-78
2022/01/09 02:05:07;;;;;;;0.80;0.60;;;;;;;6.61;76.43;97611.59;5010476;28;20741;-78
2022/01/09 02:07:33;;;;;;;2.45;0.82;;;;;;;6.57;76.50;97605.78;5008058;28;20205;-78
2022/01/09 02:09:59;;;;;;;0.70;0.70;;;;;;;6.52;76.24;97607.09;5011066;28;20675;-78
2022/01/09 02:12:24;;;;;;;0.73;0.63;;;;;;;6.48;76.44;97601.31;5009609;28;20677;-78
2022/01/09 02:14:50;;;;;;;0.90;0.70;;;;;;;6.47;76.43;97609.25;4989343;28;20274;-78
2022/01/09 02:17:19;;;;;;;1.03;0.60;;;;;;;6.43;75.89;97619.09;5011062;28;20244;-78
2022/01/09 02:19:56;;;;;;;0.70;0.60;;;;;;;6.39;75.69;97610.66;5007049;28;20241;-78
2022/01/09 02:22:30;;;;;;;0.70;0.60;;;;;;;6.36;75.71;97603.09;5012565;28;20273;-77
2022/01/09 02:24:55;;;;;;;1.13;0.73;;;;;;;6.34;75.83;97625.84;5007627;28;20250;-78
2022/01/09 02:27:20;;;;;;;0.70;0.60;;;;;;;6.32;75.92;97635.59;5013667;28;20305;-78
2022/01/09 02:29:47;;;;;;;2.00;0.93;;;;;;;6.31;76.18;97631.28;5012027;28;20211;-78
2022/01/09 02:32:16;;;;;;;1.35;0.70;;;;;;;6.28;76.30;97615.91;5011144;28;20330;-78
2022/01/09 02:34:45;;;;;;;0.80;0.60;;;;;;;6.28;76.16;97636.75;5010948;28;20706;-78
2022/01/09 02:37:10;;;;;;;1.85;1.05;;;;;;;6.26;76.60;97635.22;5011460;28;20301;-78
2022/01/09 02:39:35;;;;;;;1.23;0.90;;;;;;;6.25;76.57;97651.81;5013539;28;20298;-78
2022/01/09 02:42:01;;;;;;;0.80;0.70;;;;;;;6.22;76.67;97647.66;5014269;28;20864;-78
2022/01/09 02:44:26;;;;;;;0.80;0.80;;;;;;;6.20;76.82;97646.94;5016374;28;20237;-78
2022/01/09 02:47:04;;;;;;;0.80;0.70;;;;;;;6.20;77.11;97649.56;5014858;28;20316;-78
2022/01/09 02:49:31;;;;;;;7.07;0.95;;;;;;;6.19;77.61;97647.91;5010711;28;20194;-78
2022/01/09 02:51:58;;;;;;;0.90;0.80;;;;;;;6.18;77.75;97654.06;5014889;28;20258;-78
2022/01/09 02:57:08;;;;;;;1.50;0.77;;;;;;;6.14;77.27;97676.09;5011964;28;20229;-78
2022/01/09 02:59:33;;;;;;;0.80;0.77;;;;;;;6.13;76.88;97674.44;5013824;28;20214;-78
2022/01/09 03:01:58;;;;;;;10.70;1.37;;;;;;;6.10;76.87;97705.94;5012950;28;20206;-78
2022/01/09 03:04:24;;;;;;;1.50;0.67;;;;;;;6.08;76.60;97718.28;5014367;28;20199;-79
2022/01/09 03:06:49;;;;;;;1.00;0.60;;;;;;;6.06;75.87;97725.38;4995816;28;20568;-78
2022/01/09 03:09:14;;;;;;;0.80;0.60;;;;;;;6.00;75.89;97747.53;5014098;28;20195;-78
2022/01/09 03:11:40;;;;;;;1.33;0.70;;;;;;;5.96;75.73;97767.75;5015695;28;20265;-78
2022/01/09 03:14:07;;;;;;;2.83;1.03;;;;;;;5.87;76.30;97784.03;5034773;28;20217;-78
2022/01/09 03:16:33;;;;;;;7.07;1.00;;;;;;;5.75;76.97;97809.22;5020735;28;20330;-78
2022/01/09 03:18:59;;;;;;;1.27;0.63;;;;;;;5.63;77.32;97832.72;5014529;28;20250;-78
2022/01/09 03:21:24;;;;;;;2.00;0.60;;;;;;;5.50;77.63;97849.22;5011736;28;20258;-79
2022/01/09 03:23:49;;;;;;;0.90;0.53;;;;;;;5.37;78.36;97851.03;5014949;28;20233;-78
2022/01/09 03:26:15;;;;;;;2.53;0.60;;;;;;;5.25;78.21;97878.75;5011230;28;20453;-79
2022/01/09 03:28:40;;;;;;;0.60;0.50;;;;;;;5.17;78.29;97873.25;5011684;28;20304;-79
2022/01/09 03:31:06;;;;;;;0.70;0.52;;;;;;;5.12;79.27;97893.56;5009107;28;20490;-78
2022/01/09 03:33:31;;;;;;;0.70;0.50;;;;;;;5.08;79.05;97911.16;5013749;28;20206;-79
2022/01/09 03:35:56;;;;;;;2.40;0.70;;;;;;;5.06;79.05;97909.59;5009406;28;20230;-80
2022/01/09 03:38:22;;;;;;;0.67;0.60;;;;;;;5.05;78.78;97919.19;5015904;28;20412;-79
2022/01/09 03:40:47;;;;;;;3.23;0.80;;;;;;;5.03;78.61;97931.44;5011500;28;20205;-78
2022/01/09 03:43:12;;;;;;;2.40;0.70;;;;;;;5.02;78.55;97940.22;5015090;28;20273;-79
2022/01/09 03:45:38;;;;;;;0.60;0.50;;;;;;;4.99;78.93;97956.00;5009535;28;20241;-78
2022/01/09 03:48:03;;;;;;;0.60;0.50;;;;;;;4.99;79.18;97962.97;5012073;28;20199;-75
2022/01/09 03:50:29;;;;;;;0.70;0.60;;;;;;;4.96;79.84;97969.22;5012417;28;20211;-75
2022/01/09 03:52:55;;;;;;;1.00;0.87;;;;;;;4.96;80.10;97973.59;5013479;28;20458;-75
2022/01/09 03:55:22;;;;;;;2.10;1.07;;;;;;;4.91;80.24;97983.47;5014293;28;20238;-75
2022/01/09 03:57:48;;;;;;;0.98;0.80;;;;;;;4.86;80.97;97979.44;5009927;28;20715;-77
2022/01/09 04:00:19;;;;;;;1.95;1.20;;;;;;;4.82;81.40;97987.53;5008766;28;20340;-78
2022/01/09 04:02:48;;;;;;;1.27;1.00;;;;;;;4.77;81.68;97982.63;5014182;28;20233;-79
2022/01/09 04:05:14;;;;;;;1.50;0.85;;;;;;;4.74;81.81;97984.59;5008459;28;20706;-77
2022/01/09 04:07:39;;;;;;;1.00;0.70;;;;;;;4.70;82.10;98003.91;5012798;28;20199;-78
2022/01/09 04:10:05;;;;;;;0.80;0.60;;;;;;;4.64;82.16;98012.97;4996224;28;20210;-78
2022/01/09 04:12:34;;;;;;;0.70;0.50;;;;;;;4.60;82.41;98007.13;5011724;28;20891;-78
2022/01/09 04:15:03;;;;;;;0.60;0.50;;;;;;;4.56;82.48;98008.25;5009723;28;20833;-77
2022/01/09 04:20:08;;;;;;;0.70;0.60;;;;;;;4.52;83.01;98021.56;5012450;28;20207;-77
2022/01/09 04:22:34;;;;;;;0.60;0.50;;;;;;;4.48;83.19;98020.91;5008822;28;20220;-78
2022/01/09 04:24:59;;;;;;;0.60;0.53;;;;;;;4.47;83.21;98037.47;5008201;28;20233;-78
2022/01/09 04:27:25;;;;;;;0.80;0.50;;;;;;;4.46;83.38;98038.41;5011495;28;20223;-79
2022/01/09 04:29:50;;;;;;;0.60;0.50;;;;;;;4.43;83.35;98038.59;5009275;28;20195;-78
2022/01/09 04:32:15;;;;;;;0.70;0.60;;;;;;;4.51;83.42;98049.34;5010298;28;20679;-78
2022/01/09 04:34:41;;;;;;;0.63;0.57;;;;;;;4.48;83.67;98046.91;5012525;28;20570;-77
2022/01/09 04:37:06;;;;;;;0.60;0.50;;;;;;;4.46;83.41;98051.41;5006300;28;20203;-78
2022/01/09 04:39:32;;;;;;;0.60;0.50;;;;;;;4.42;83.31;98052.50;5011096;28;20207;-78
2022/01/09 04:41:57;;;;;;;0.60;0.50;;;;;;;4.40;83.42;98062.16;5007352;28;20214;-77
2022/01/09 04:44:23;;;;;;;1.47;0.50;;;;;;;4.37;83.57;98067.56;4995163;28;20261;-78
2022/01/09 04:46:56;;;;;;;1.07;0.57;;;;;;;4.34;83.52;98083.34;5009664;28;20222;-78
2022/01/09 04:49:25;;;;;;;0.88;0.50;;;;;;;4.32;83.37;98078.28;5012127;28;20515;-77
2022/01/09 04:51:51;;;;;;;4.50;0.70;;;;;;;4.29;83.48;98078.44;5007258;28;20301;-77
2022/01/09 04:54:16;;;;;;;1.07;0.60;;;;;;;4.29;83.29;98090.59;5014356;28;20349;-77
2022/01/09 04:56:41;;;;;;;0.97;0.60;;;;;;;4.26;83.36;98085.59;5012323;28;20734;-77
2022/01/09 04:59:07;;;;;;;1.37;0.90;;;;;;;4.24;83.29;98101.31;5012605;28;20218;-77
2022/01/09 05:01:32;;;;;;;1.87;0.70;;;;;;;4.24;83.32;98106.50;5009053;28;20226;-77
2022/01/09 05:03:58;;;;;;;2.83;0.80;;;;;;;4.21;83.14;98120.53;5009310;28;20455;-78
2022/01/09 05:06:24;;;;;;;0.87;0.60;;;;;;;4.21;83.17;98124.84;5013190;28;20303;-77
2022/01/09 05:08:49;;;;;;;1.33;0.95;;;;;;;4.19;83.49;98129.34;5009893;28;20292;-78
2022/01/09 05:11:15;;;;;;;0.80;0.60;;;;;;;4.16;83.26;98132.97;5014651;28;20714;-77
2022/01/09 05:13:40;;;;;;;1.00;0.70;;;;;;;4.16;83.21;98145.97;5012801;28;20226;-77
2022/01/09 05:16:06;;;;;;;0.90;0.73;;;;;;;4.18;83.38;98148.44;5005556;28;20227;-77
2022/01/09 05:18:39;;;;;;;0.70;0.53;;;;;;;4.15;83.36;98159.03;5012362;28;20211;-77
2022/01/09 05:21:04;;;;;;;1.63;0.70;;;;;;;4.15;83.44;98154.66;5009380;28;20215;-77
2022/01/09 05:23:30;;;;;;;1.10;0.80;;;;;;;4.16;83.43;98168.50;4994113;28;20223;-77
2022/01/09 05:25:55;;;;;;;1.30;0.80;;;;;;;4.16;83.68;98158.94;5009808;28;20230;-77
2022/01/09 05:28:21;;;;;;;3.27;0.90;;;;;;;4.17;83.48;98172.78;5011766;28;20246;-78
2022/01/09 05:30:46;;;;;;;1.13;0.80;;;;;;;4.18;83.39;98172.66;5013895;28;20561;-77
2022/01/09 05:33:11;;;;;;;0.80;0.60;;;;;;;4.19;83.18;98186.50;5007510;28;20199;-78
2022/01/09 05:35:37;;;;;;;0.70;0.60;;;;;;;4.22;83.26;98189.75;5010079;28;20314;-77
2022/01/09 05:38:02;;;;;;;1.80;0.70;;;;;;;4.24;83.09;98194.88;5010777;28;20747;-77
2022/01/09 05:40:27;;;;;;;1.00;0.70;;;;;;;4.23;83.21;98193.19;5011150;28;20228;-77
2022/01/09 05:42:53;;;;;;;0.90;0.80;;;;;;;4.25;83.11;98206.09;5013156;28;20344;-78
2022/01/09 05:45:19;;;;;;;1.17;0.83;;;;;;;4.25;82.99;98199.13;5008501;28;20237;-78
2022/01/09 05:47:46;;;;;;;1.17;0.85;;;;;;;4.25;83.13;98206.94;5010811;28;20216;-78
2022/01/09 05:50:12;;;;;;;1.00;0.90;;;;;;;4.25;83.13;98204.31;5010227;28;20199;-78
2022/01/09 05:52:38;;;;;;;6.07;2.17;;;;;;;4.26;83.02;98202.56;5016453;28;20389;-78
2022/01/09 05:55:04;;;;;;;1.30;0.90;;;;;;;4.27;82.83;98215.47;5032833;28;20457;-78
2022/01/09 05:57:29;;;;;;;1.13;0.70;;;;;;;4.27;83.02;98218.06;5018936;28;20210;-78
2022/01/09 05:59:54;;;;;;;1.10;0.90;;;;;;;4.29;82.60;98224.00;5011776;28;20207;-77
2022/01/09 06:02:20;;;;;;;2.53;1.03;;;;;;;4.28;82.20;98222.34;5010995;28;20543;-78
2022/01/09 06:04:45;;;;;;;1.57;1.37;;;;;;;4.28;82.22;98226.69;5011782;28;20206;-77
2022/01/09 06:07:11;;;;;;;1.47;0.87;;;;;;;4.30;81.82;98237.84;5011609;28;20205;-77
2022/01/09 06:09:36;;;;;;;1.17;0.70;;;;;;;4.28;81.46;98242.28;5016532;28;20206;-77
2022/01/09 06:12:01;;;;;;;2.90;0.90;;;;;;;4.27;81.00;98236.28;5013561;28;20206;-77
2022/01/09 06:14:27;;;;;;;1.20;0.70;;;;;;;4.26;80.89;98241.53;5013831;28;20246;-77
2022/01/09 06:16:52;;;;;;;0.70;0.60;;;;;;;4.26;80.88;98259.75;5016724;28;20236;-77
2022/01/09 06:19:18;;;;;;;2.03;0.60;;;;;;;4.25;81.07;98237.28;5014894;28;20205;-77
2022/01/09 06:21:43;;;;;;;0.73;0.73;;;;;;;4.24;81.08;98243.38;5011143;28;20710;-77
2022/01/09 06:24:09;;;;;;;2.23;0.93;;;;;;;4.21;81.32;98247.88;5015109;28;20297;-78
2022/01/09 06:26:34;;;;;;;0.90;0.70;;;;;;;4.21;81.38;98260.88;5017925;28;20687;-78
2022/01/09 06:28:59;;;;;;;1.07;0.77;;;;;;;4.21;81.52;98260.00;4990046;28;20248;-78
2022/01/09 06:31:25;;;;;;;1.77;0.80;;;;;;;4.23;82.11;98265.94;5014023;28;20475;-77
2022/01/09 06:33:50;;;;;;;1.63;0.90;;;;;;;4.24;82.13;98264.19;5012747;28;20733;-77
2022/01/09 06:36:15;;;;;;;1.50;1.20;;;;;;;4.22;81.86;98274.69;5011370;28;20702;-77
2022/01/09 06:38:41;;;;;;;4.00;1.20;;;;;;;4.22;82.17;98275.53;4995688;28;20203;-78
2022/01/09 06:41:06;;;;;;;2.17;1.00;;;;;;;4.22;81.79;98282.47;5012735;28;20233;-78
2022/01/09 06:43:32;;;;;;;3.67;1.20;;;;;;;4.21;82.19;98289.44;5015040;28;20313;-78
2022/01/09 06:45:57;;;;;;;9.00;1.07;;;;;;;4.21;81.98;98279.06;5014460;28;20229;-78
2022/01/09 06:48:23;;;;;;;3.40;1.60;;;;;;;4.20;82.06;98276.53;5012235;28;20560;-77
2022/01/09 06:50:48;;;;;;;4.50;1.47;;;;;;;4.20;82.10;98281.72;5014003;28;20597;-78
2022/01/09 06:53:13;;;;;;;5.13;1.33;;;;;;;4.20;82.30;98289.53;5009981;28;20693;-78
2022/01/09 06:55:40;;;;;;;3.10;1.13;;;;;;;4.17;82.15;98294.91;5036554;23;20241;-77
2022/01/09 06:58:05;;;;;;;6.25;2.00;;;;;;;4.18;82.09;98310.41;4988049;28;20238;-77
2022/01/09 07:00:30;;;;;;;4.43;1.20;;;;;;;4.18;82.07;98310.41;5000806;28;20206;-78
2022/01/09 07:02:56;;;;;;;3.03;1.30;;;;;;;4.18;81.78;98320.78;5010199;28;20215;-78
2022/01/09 07:05:21;;;;;;;2.00;1.20;;;;;;;4.18;81.67;98318.19;5009785;28;20709;-77
2022/01/09 07:07:47;;;;;;;2.00;1.00;;;;;;;4.18;81.80;98333.78;5012320;28;20685;-78
2022/01/09 07:10:13;;;;;;;3.80;1.43;;;;;;;4.18;81.53;98345.94;5013041;28;20277;-77
2022/01/09 07:12:39;;;;;;;1.27;1.00;;;;;;;4.16;82.03;98359.06;5013175;28;20206;-77
2022/01/09 07:15:05;;;;;;;2.75;1.35;;;;;;;4.17;81.71;98359.88;5008804;28;20199;-77
2022/01/09 07:17:31;;;;;;;1.10;1.00;;;;;;;4.17;82.16;98371.09;5012023;28;20321;-77
2022/01/09 07:19:56;;;;;;;4.35;1.10;;;;;;;4.13;82.13;98384.34;5008059;28;20214;-77
2022/01/09 07:22:22;;;;;;;0.80;0.63;;;;;;;4.04;82.14;98401.31;5009798;28;20483;-77
2022/01/09 07:24:47;;;;;;;2.60;1.30;;;;;;;3.96;81.96;98406.09;5012218;28;20207;-77
2022/01/09 07:27:13;;;;;;;1.63;1.10;;;;;;;3.87;82.06;98404.03;5012415;28;20241;-78
2022/01/09 07:29:38;;;;;;;2.47;1.30;;;;;;;3.79;82.20;98388.03;5012743;28;20261;-78
2022/01/09 07:32:04;;;;;;;1.77;1.20;;;;;;;3.73;82.42;98384.84;5011580;28;20276;-78
2022/01/09 07:34:30;;;;;;;2.90;1.17;;;;;;;3.72;82.48;98393.53;5014628;28;20214;-78
2022/01/09 07:36:55;;;;;;;3.20;1.50;;;;;;;3.70;82.53;98398.00;5011304;28;20476;-78
2022/01/09 07:39:20;;;;;;;3.57;1.23;;;;;;;3.73;82.32;98389.22;5014390;28;20210;-78
2022/01/09 07:41:46;;;;;;;1.83;1.50;;;;;;;3.77;82.27;98388.94;5012387;28;20214;-78
2022/01/09 07:44:11;;;;;;;2.10;1.50;;;;;;;3.83;82.10;98392.13;5012466;28;20244;-78
2022/01/09 07:46:38;;;;;;;11.50;2.17;;;;;;;3.86;82.20;98400.59;5010435;28;20238;-78
2022/01/09 07:49:03;;;;;;;1.75;1.25;;;;;;;3.89;81.78;98405.63;5013150;28;20226;-80
2022/01/09 07:51:29;;;;;;;2.10;1.40;;;;;;;3.91;81.85;98413.31;5010771;28;20306;-77
2022/01/09 07:53:54;;;;;;;1.80;1.33;;;;;;;3.93;81.81;98419.25;5012047;28;20222;-78
2022/01/09 07:56:20;;;;;;;3.70;1.50;;;;;;;3.94;82.08;98419.19;5018320;28;20398;-79
2022/01/09 07:58:46;;;;;;;3.60;1.70;;;;;;;3.96;81.80;98425.13;5031483;28;20201;-79
2022/01/09 08:01:11;;;;;;;3.20;2.20;;;;;;;3.97;81.69;98425.97;5013207;28;20256;-78
2022/01/09 08:03:37;;;;;;;4.63;2.00;;;;;;;3.98;81.84;98418.09;5033032;28;20393;-79
2022/01/09 08:06:03;;;;;;;1.93;1.77;;;;;;;4.01;81.55;98411.88;5031692;28;20336;-78
2022/01/09 08:08:28;;;;;;;6.78;1.98;;;;;;;4.03;81.39;98417.00;5033411;28;20198;-79
2022/01/09 08:10:54;;;;;;;2.70;2.10;;;;;;;4.06;81.22;98425.47;5032522;28;20210;-78
2022/01/09 08:13:20;;;;;;;4.40;1.53;;;;;;;4.07;81.13;98427.13;5029438;28;20770;-79
2022/01/09 08:15:46;;;;;;;4.80;1.50;;;;;;;4.09;80.89;98429.66;5033343;28;20216;-79
2022/01/09 08:18:11;;;;;;;2.28;1.67;;;;;;;4.12;80.77;98430.31;5033342;28;20255;-78
2022/01/09 08:20:37;;;;;;;4.80;2.30;;;;;;;4.16;80.95;98437.00;5032075;28;20885;-79
2022/01/09 08:23:03;;;;;;;6.20;1.70;;;;;;;4.22;80.63;98435.84;5032785;28;20621;-78
2022/01/09 08:25:28;;;;;;;2.00;1.20;;;;;;;4.27;80.15;98439.00;5014445;28;20459;-78
2022/01/09 08:27:55;;;;;;;8.37;2.60;;;;;;;4.32;80.06;98436.13;5031123;28;20943;-78
2022/01/09 08:30:21;;;;;;;3.97;1.40;;;;;;;4.34;79.98;98436.88;5032929;28;20296;-78
2022/01/09 08:32:48;;;;;;;4.18;1.50;;;;;;;4.35;79.92;98447.22;5033972;28;20770;-79
2022/01/09 08:35:14;;;;;;;4.97;2.05;;;;;;;4.35;79.84;98441.19;5033011;28;20201;-78
2022/01/09 08:37:44;;;;;;;4.47;2.20;;;;;;;4.33;79.58;98456.03;5031331;28;20244;-78
2022/01/09 08:40:12;;;;;;;5.10;2.35;;;;;;;4.31;79.58;98461.28;5030050;28;20221;-80
2022/01/09 08:42:40;;;;;;;7.70;2.75;;;;;;;4.31;79.60;98465.66;5014697;28;20240;-77
2022/01/09 08:45:06;;;;;;;3.10;1.80;;;;;;;4.29;79.64;98472.69;5029387;28;20699;-78
2022/01/09 08:47:31;;;;;;;5.40;1.67;;;;;;;4.28;79.69;98465.84;5031393;28;20723;-79
2022/01/09 08:49:57;;;;;;;3.00;2.60;;;;;;;4.25;79.60;98463.41;5031188;28;20468;-78
2022/01/09 08:52:22;;;;;;;2.10;1.70;;;;;;;4.25;79.65;98466.84;5033387;28;20328;-78
2022/01/09 08:54:50;;;;;;;12.47;2.20;;;;;;;4.25;79.55;98473.81;5029899;28;20570;-79
2022/01/09 08:57:16;;;;;;;4.45;1.70;;;;;;;4.24;79.41;98478.19;5030218;28;20363;-78
2022/01/09 08:59:41;;;;;;;3.03;1.63;;;;;;;4.22;79.76;98473.06;5031302;28;20242;-79
2022/01/09 09:02:06;;;;;;;5.10;1.90;;;;;;;4.21;79.58;98480.91;5031254;28;20218;-78
2022/01/09 09:04:32;;;;;;;2.57;1.80;;;;;;;4.19;79.42;98478.44;5028742;28;20226;-79
2022/01/09 09:06:58;;;;;;;3.20;1.50;;;;;;;4.18;79.84;98492.31;5029830;28;20221;-79
2022/01/09 09:09:23;;;;;;;3.63;1.90;;;;;;;4.20;79.94;98485.28;5031786;28;20297;-77
2022/01/09 09:11:49;;;;;;;4.00;1.77;;;;;;;4.20;79.73;98474.06;5033756;28;20588;-78
2022/01/09 09:14:14;;;;;;;5.38;2.25;;;;;;;4.21;79.76;98476.59;5031506;28;20228;-78
2022/01/09 09:16:40;;;;;;;1.60;1.50;;;;;;;4.24;79.52;98495.50;5033059;28;20368;-80
2022/01/09 09:19:05;;;;;;;4.80;2.10;;;;;;;4.27;79.72;98492.75;5012902;28;20229;-78
2022/01/09 09:21:31;;;;;;;2.57;1.70;;;;;;;4.31;79.59;98489.88;5012047;28;20541;-80
2022/01/09 09:23:56;;;;;;;4.20;2.80;;;;;;;4.36;79.40;98490.47;5033878;28;20710;-78
2022/01/09 09:26:22;;;;;;;4.10;2.20;;;;;;;4.40;79.33;98493.72;5031364;28;20864;-79
2022/01/09 09:28:48;;;;;;;2.80;1.70;;;;;;;4.43;79.39;98496.19;5032032;28;20628;-78
2022/01/09 09:31:13;;;;;;;3.93;2.17;;;;;;;4.41;79.31;98506.66;5031105;28;20444;-78
2022/01/09 09:33:39;;;;;;;4.67;1.90;;;;;;;4.41;79.40;98503.22;5031199;28;20215;-78
2022/01/09 09:36:05;;;;;;;11.23;5.97;;;;;;;4.41;79.37;98511.84;5029384;28;20344;-78
2022/01/09 09:38:30;;;;;;;7.53;2.90;;;;;;;4.41;79.50;98518.81;5031048;28;20324;-80
2022/01/09 09:40:56;;;;;;;3.10;2.00;;;;;;;4.42;79.39;98516.13;5031274;28;20202;-77
2022/01/09 09:43:22;;;;;;;5.78;1.90;;;;;;;4.42;79.47;98513.50;5027022;28;20259;-80
2022/01/09 09:45:47;;;;;;;3.53;2.80;;;;;;;4.46;79.35;98521.16;5031078;28;20216;-78
2022/01/09 09:48:13;;;;;;;3.50;2.23;;;;;;;4.48;79.46;98514.09;5026864;28;20296;-80
2022/01/09 09:50:40;;;;;;;1.90;1.80;;;;;;;4.51;79.39;98509.59;5028396;28;21033;-78
2022/01/09 09:53:05;;;;;;;8.00;1.85;;;;;;;4.55;79.84;98516.28;5031313;28;20711;-77
2022/01/09 09:55:31;;;;;;;3.10;2.77;;;;;;;4.58;79.43;98515.25;5028589;28;20206;-80
2022/01/09 09:57:57;;;;;;;7.70;2.30;;;;;;;4.60;79.30;98513.41;5030473;28;20984;-78
2022/01/09 10:00:24;;;;;;;6.75;2.60;;;;;;;4.60;79.51;98514.25;5030023;28;20710;-77
2022/01/09 10:02:50;;;;;;;2.92;2.00;;;;;;;4.63;79.56;98505.44;5028263;28;20248;-77
2022/01/09 10:05:27;;;;;;;8.07;2.17;;;;;;;4.66;79.25;98498.28;5029609;28;20241;-77
2022/01/09 10:07:54;;;;;;;2.45;1.58;;;;;;;4.73;79.78;98503.16;5030725;28;20226;-77
2022/01/09 10:10:30;;;;;;;2.85;1.60;;;;;;;4.80;79.40;98500.09;5028745;28;20248;-78
2022/01/09 10:13:18;;;;;;;4.97;2.25;;;;;;;5.42;77.87;98502.53;5029135;28;20416;-79
2022/01/09 10:15:51;;;;;;;7.68;2.28;;;;;;;5.95;75.84;98495.81;5008312;28;20217;-79
2022/01/09 10:18:49;;;;;;;4.07;2.58;;;;;;;6.39;74.21;98479.13;5027300;28;20209;-77
2022/01/09 10:21:20;;;;;;;2.90;1.45;;;;;;;6.57;73.53;98484.09;5029654;28;20699;-77
2022/01/09 10:24:03;;;;;;;2.75;1.75;;;;;;;6.51;73.25;98493.16;5029718;28;20596;-77
2022/01/09 10:26:31;;;;;;;2.20;1.63;;;;;;;6.45;73.39;98488.31;5025859;28;20240;-77
2022/01/09 10:28:56;;;;;;;6.15;1.85;;;;;;;6.46;73.37;98484.78;5028020;28;20240;-80
2022/01/09 10:31:22;;;;;;;3.40;1.67;;;;;;;6.37;73.05;98488.84;5029902;28;20198;-77
2022/01/09 10:34:01;;;;;;;3.73;1.33;;;;;;;6.26;72.87;98493.03;5031041;28;20195;-78
2022/01/09 10:36:39;;;;;;;4.30;2.90;;;;;;;6.20;73.14;98495.09;5026520;28;20221;-77
2022/01/09 10:39:16;;;;;;;3.05;1.55;;;;;;;6.16;73.07;98503.25;5028105;28;20285;-77
2022/01/09 10:41:56;;;;;;;3.08;1.48;;;;;;;6.14;73.15;98489.47;5007115;28;20271;-79
2022/01/09 10:44:27;;;;;;;3.45;1.60;;;;;;;6.14;73.33;98500.72;5026766;28;20217;-78
2022/01/09 10:47:04;;;;;;;5.78;1.90;;;;;;;6.12;73.01;98491.31;5010257;28;20324;-77
2022/01/09 10:49:55;;;;;;;2.10;1.23;;;;;;;6.09;73.48;98488.91;5027121;28;20202;-78
2022/01/09 10:52:22;;;;;;;3.22;1.63;;;;;;;6.06;73.03;98491.72;5026902;28;20539;-76
2022/01/09 10:54:49;;;;;;;9.95;2.75;;;;;;;5.98;73.18;98481.75;5030719;28;20218;-77
2022/01/09 10:57:20;;;;;;;4.70;1.50;;;;;;;5.87;73.71;98478.97;5031630;28;20244;-79
2022/01/09 10:59:47;;;;;;;3.95;1.23;;;;;;;5.77;73.71;98483.91;5032117;28;20340;-77
2022/01/09 11:02:13;;;;;;;3.55;1.83;;;;;;;5.68;74.21;98484.47;5031914;28;20316;-77
2022/01/09 11:04:43;;;;;;;3.03;1.48;;;;;;;5.62;74.33;98480.50;5028961;28;21040;-80
2022/01/09 11:07:11;;;;;;;5.35;2.08;;;;;;;5.58;74.50;98486.81;5033062;28;20221;-77
2022/01/09 11:09:38;;;;;;;2.97;1.60;;;;;;;5.55;74.56;98473.97;5032161;28;20666;-77
2022/01/09 11:12:07;;;;;;;2.95;1.55;;;;;;;5.60;74.44;98487.56;5032147;28;20485;-80
2022/01/09 11:14:36;;;;;;;2.88;1.30;;;;;;;5.67;74.36;98486.25;5031334;28;20209;-79
2022/01/09 11:17:04;;;;;;;4.57;2.10;;;;;;;5.79;74.39;98474.22;5033044;28;20225;-78
2022/01/09 11:19:31;;;;;;;2.38;1.20;;;;;;;5.86;74.34;98472.94;5007206;28;20205;-77
2022/01/09 11:22:02;;;;;;;2.45;1.30;;;;;;;5.94;74.32;98469.84;5032327;28;20432;-79
2022/01/09 11:24:39;;;;;;;6.18;1.73;;;;;;;5.94;74.06;98478.53;5032285;28;20217;-79
2022/01/09 11:27:17;;;;;;;1.58;1.20;;;;;;;5.93;74.42;98470.75;5031545;28;20280;-78
2022/01/09 11:30:17;;;;;;;2.90;1.38;;;;;;;5.92;74.06;98475.13;5035685;28;20219;-77
2022/01/09 11:33:14;;;;;;;2.40;1.35;;;;;;;6.05;74.09;98467.41;5029487;28;20834;-79
2022/01/09 11:36:01;;;;;;;2.63;1.52;;;;;;;6.06;74.36;98457.81;5033875;28;20198;-76
2022/01/09 11:38:57;;;;;;;1.83;1.20;;;;;;;6.10;74.40;98457.53;4843419;28;5001905;-77
2022/01/09 11:41:26;;;;;;;2.85;1.65;;;;;;;6.11;74.07;98458.38;5031537;28;20624;-77
2022/01/09 11:43:51;;;;;;;1.67;1.05;;;;;;;6.03;74.01;98453.66;5013182;28;20222;-79
2022/01/09 11:46:17;;;;;;;1.87;1.30;;;;;;;5.96;74.66;98452.34;5029291;28;20224;-79